createdAt,value
2022-12-04T00:01:45.966Z,4.50
2022-12-04T00:06:41.482Z,4.40
2022-12-04T00:09:09.087Z,4.40
2022-12-04T00:14:07.567Z,4.20
2022-12-04T00:19:05.361Z,4.10
2022-12-04T00:21:33.861Z,4.10
2022-12-04T00:31:31.119Z,4.10
2022-12-04T00:36:29.937Z,4.20
2022-12-04T00:39:00.857Z,4.30
2022-12-04T00:41:30.036Z,4.40
2022-12-04T00:43:58.097Z,4.40
2022-12-04T00:51:23.172Z,4.50
2022-12-04T00:53:51.775Z,4.50
2022-12-04T00:58:55.237Z,4.60
2022-12-04T01:01:32.633Z,4.60
2022-12-04T01:04:03.366Z,4.60
2022-12-04T01:06:33.462Z,4.50
2022-12-04T01:09:07.653Z,4.50
2022-12-04T01:16:35.959Z,4.40
2022-12-04T01:19:05.980Z,4.40
2022-12-04T01:21:33.830Z,4.40
2022-12-04T01:24:04.181Z,4.30
2022-12-04T01:26:34.524Z,4.30
2022-12-04T01:29:02.706Z,4.20
2022-12-04T01:31:32.403Z,4.20
2022-12-04T01:38:59.551Z,3.80
2022-12-04T01:41:29.646Z,3.70
2022-12-04T01:44:27.076Z,3.70
2022-12-04T01:46:57.595Z,3.80
2022-12-04T01:49:36.488Z,3.90
2022-12-04T01:52:11.002Z,4.00
2022-12-04T01:54:44.612Z,4.10
2022-12-04T01:57:21.012Z,4.10
2022-12-04T02:00:06.964Z,4.00
2022-12-04T02:02:39.027Z,4.00
2022-12-04T02:05:09.468Z,3.90
2022-12-04T02:07:39.340Z,3.90
2022-12-04T02:10:09.060Z,3.80
2022-12-04T02:15:11.529Z,3.70
2022-12-04T02:20:25.937Z,3.60
2022-12-04T02:23:38.986Z,3.70
2022-12-04T02:26:34.906Z,3.80
2022-12-04T02:29:37.385Z,3.80
2022-12-04T02:32:13.314Z,3.10
2022-12-04T02:34:47.030Z,3.90
2022-12-04T02:37:24.512Z,4.00
2022-12-04T02:39:57.266Z,4.10
2022-12-04T02:42:37.386Z,4.10
2022-12-04T02:45:11.773Z,4.20
2022-12-04T02:47:43.262Z,4.30
2022-12-04T02:50:15.055Z,4.30
2022-12-04T02:53:00.382Z,4.40
2022-12-04T02:55:39.278Z,4.40
2022-12-04T02:58:31.265Z,0.40
2022-12-04T03:01:02.605Z,4.40
2022-12-04T03:03:33.002Z,4.40
2022-12-04T03:06:06.407Z,8.20
2022-12-04T03:08:47.111Z,4.50
2022-12-04T03:14:18.634Z,4.50
2022-12-04T03:16:49.807Z,4.40
2022-12-04T03:19:27.773Z,4.50
2022-12-04T03:27:03.751Z,4.50
2022-12-04T03:29:42.847Z,4.50
2022-12-04T03:32:21.967Z,4.30
2022-12-04T03:35:13.913Z,4.40
2022-12-04T03:37:50.386Z,4.40
2022-12-04T03:40:26.259Z,4.40
2022-12-04T03:43:17.822Z,4.30
2022-12-04T03:45:56.640Z,4.20
2022-12-04T03:48:31.276Z,4.10
2022-12-04T03:51:12.752Z,3.90
2022-12-04T03:53:56.439Z,3.80
2022-12-04T03:56:30.008Z,3.70
2022-12-04T03:59:03.250Z,3.60
2022-12-04T04:01:35.530Z,3.50
2022-12-04T04:04:07.871Z,3.50
2022-12-04T04:06:40.600Z,3.50
2022-12-04T04:09:16.569Z,3.60
2022-12-04T04:12:25.500Z,3.60
2022-12-04T04:18:01.932Z,3.70
2022-12-04T04:21:03.383Z,3.80
2022-12-04T04:23:55.626Z,3.90
2022-12-04T04:31:41.989Z,4.00
2022-12-04T04:34:18.722Z,4.00
2022-12-04T04:37:09.062Z,4.00
2022-12-04T04:39:42.119Z,4.00
2022-12-04T04:42:24.971Z,4.00
2022-12-04T04:45:02.187Z,4.00
2022-12-04T04:47:43.595Z,4.00
2022-12-04T04:50:14.144Z,4.00
2022-12-04T04:53:06.297Z,4.00
2022-12-04T04:55:36.181Z,4.00
2022-12-04T04:58:18.551Z,4.00
2022-12-04T05:01:05.322Z,4.00
2022-12-04T05:03:33.472Z,4.00
2022-12-04T05:06:01.692Z,4.00
2022-12-04T05:08:29.249Z,4.00
2022-12-04T05:13:25.682Z,4.00
2022-12-04T05:16:08.350Z,4.00
2022-12-04T05:18:36.590Z,4.00
2022-12-04T05:21:18.277Z,4.00
2022-12-04T05:31:12.746Z,4.00
2022-12-04T05:33:40.343Z,4.00
2022-12-04T05:36:11.612Z,4.00
2022-12-04T05:43:35.768Z,4.00
2022-12-04T05:46:04.895Z,4.00
2022-12-04T05:53:28.876Z,4.00
2022-12-04T05:56:01.550Z,4.00
2022-12-04T05:58:30.488Z,4.00
2022-12-04T06:03:26.344Z,4.00
2022-12-04T06:13:20.136Z,4.00
2022-12-04T06:18:15.893Z,4.00
2022-12-04T06:20:43.889Z,4.00
2022-12-04T06:23:11.688Z,4.00
2022-12-04T06:25:39.332Z,4.00
2022-12-04T06:33:02.659Z,3.90
2022-12-04T06:35:30.203Z,3.90
2022-12-04T06:40:26.081Z,3.80
2022-12-04T06:42:53.628Z,3.80
2022-12-04T06:45:22.728Z,3.80
2022-12-04T06:52:46.085Z,3.80
2022-12-04T06:55:13.658Z,3.80
2022-12-04T07:00:09.827Z,5.60
2022-12-04T07:05:06.040Z,3.90
2022-12-04T07:07:33.684Z,3.90
2022-12-04T07:10:01.256Z,3.90
2022-12-04T07:15:01.227Z,4.00
2022-12-04T07:17:28.908Z,4.00
2022-12-04T07:19:57.523Z,4.00
2022-12-04T07:27:21.301Z,3.90
2022-12-04T07:32:17.515Z,3.90
2022-12-04T07:34:45.934Z,3.90
2022-12-04T07:39:41.510Z,3.90
2022-12-04T07:42:09.156Z,3.90
2022-12-04T07:44:37.580Z,4.00
2022-12-04T07:47:05.362Z,4.00
2022-12-04T07:49:33.279Z,4.00
2022-12-04T07:52:00.943Z,4.10
2022-12-04T07:56:57.205Z,4.20
2022-12-04T07:59:24.923Z,4.20
2022-12-04T08:04:20.588Z,4.20
2022-12-04T08:06:48.349Z,4.20
2022-12-04T08:14:12.059Z,4.20
2022-12-04T08:19:07.743Z,4.20
2022-12-04T08:24:03.818Z,4.20
2022-12-04T08:29:01.660Z,4.30
2022-12-04T08:31:31.583Z,4.30
2022-12-04T08:34:02.055Z,4.30
2022-12-04T08:46:26.730Z,4.30
2022-12-04T08:51:23.949Z,4.40
2022-12-04T08:53:57.087Z,4.50
2022-12-04T08:56:26.201Z,4.50
2022-12-04T09:01:21.846Z,4.50
2022-12-04T09:03:49.993Z,4.50
2022-12-04T09:06:18.615Z,4.60
2022-12-04T09:11:18.040Z,5.50
2022-12-04T09:13:46.807Z,4.70
2022-12-04T09:16:15.764Z,4.70
2022-12-04T09:21:14.171Z,4.70
2022-12-04T09:26:26.997Z,4.50
2022-12-04T09:28:55.936Z,4.40
2022-12-04T09:31:25.002Z,4.50
2022-12-04T09:33:53.355Z,4.50
2022-12-04T09:36:21.709Z,4.60
2022-12-04T09:38:51.860Z,4.70
2022-12-04T09:41:31.347Z,4.70
2022-12-04T09:44:14.686Z,4.80
2022-12-04T09:46:51.636Z,4.90
2022-12-04T09:49:42.124Z,4.90
2022-12-04T09:52:40.194Z,4.90
2022-12-04T09:55:24.932Z,5.00
2022-12-04T09:58:01.480Z,5.00
2022-12-04T10:00:43.104Z,5.00
2022-12-04T10:03:22.191Z,5.10
2022-12-04T10:06:17.020Z,5.10
2022-12-04T10:08:47.016Z,5.20
2022-12-04T10:14:13.667Z,5.20
2022-12-04T10:19:45.550Z,5.30
2022-12-04T10:22:31.476Z,5.40
2022-12-04T10:25:06.839Z,5.40
2022-12-04T10:27:59.805Z,5.40
2022-12-04T10:30:31.041Z,5.50
2022-12-04T10:33:05.293Z,5.50
2022-12-04T10:35:46.092Z,5.60
2022-12-04T10:38:23.494Z,5.60
2022-12-04T10:40:58.196Z,5.60
2022-12-04T10:43:47.711Z,5.50
2022-12-04T10:46:24.373Z,5.70
2022-12-04T10:49:00.000Z,5.70
2022-12-04T10:51:36.340Z,5.70
2022-12-04T10:54:29.897Z,5.80
2022-12-04T10:57:12.421Z,5.80
2022-12-04T10:59:55.433Z,5.80
2022-12-04T11:02:29.490Z,5.80
2022-12-04T11:05:00.851Z,5.80
2022-12-04T11:07:50.274Z,5.80
2022-12-04T11:10:26.841Z,5.90
2022-12-04T11:13:01.369Z,5.90
2022-12-04T11:15:31.570Z,6.00
2022-12-04T11:18:19.236Z,6.00
2022-12-04T11:20:57.189Z,6.10
2022-12-04T11:23:26.698Z,6.10
2022-12-04T11:26:05.209Z,6.20
2022-12-04T11:28:43.197Z,6.10
2022-12-04T11:31:18.043Z,6.20
2022-12-04T11:33:52.588Z,6.10
2022-12-04T11:36:35.535Z,6.20
2022-12-04T11:39:20.802Z,6.20
2022-12-04T11:42:04.567Z,6.20
2022-12-04T11:44:38.200Z,6.20
2022-12-04T11:47:18.207Z,6.20
2022-12-04T11:50:01.670Z,6.30
2022-12-04T11:52:53.767Z,6.30
2022-12-04T11:56:10.065Z,6.30
2022-12-04T11:59:02.092Z,6.40
2022-12-04T12:02:09.738Z,6.50
2022-12-04T12:04:49.572Z,6.50
2022-12-04T12:07:34.988Z,6.60
2022-12-04T12:10:23.775Z,6.60
2022-12-04T12:13:31.679Z,6.70
2022-12-04T12:15:59.326Z,6.70
2022-12-04T12:18:30.164Z,6.80
2022-12-04T12:21:24.294Z,6.90
2022-12-04T12:24:09.677Z,6.90
2022-12-04T12:26:44.174Z,7.00
2022-12-04T12:29:26.446Z,6.90
2022-12-04T12:32:14.536Z,6.90
2022-12-04T12:34:44.828Z,6.90
2022-12-04T12:37:22.422Z,6.80
2022-12-04T12:40:12.090Z,6.80
2022-12-04T12:42:57.848Z,6.70
2022-12-04T12:45:36.932Z,6.60
2022-12-04T12:48:16.875Z,6.60
2022-12-04T12:51:29.029Z,6.50
2022-12-04T12:54:04.631Z,6.40
2022-12-04T12:56:40.513Z,6.40
2022-12-04T12:59:16.898Z,6.40
2022-12-04T13:02:14.739Z,6.50
2022-12-04T13:04:48.100Z,6.60
2022-12-04T13:07:18.781Z,6.70
2022-12-04T13:10:20.601Z,6.80
2022-12-04T13:12:59.555Z,6.80
2022-12-04T13:15:40.047Z,6.90
2022-12-04T13:18:10.982Z,6.90
2022-12-04T13:20:54.407Z,6.90
2022-12-04T13:24:00.547Z,7.00
2022-12-04T13:26:49.884Z,7.00
2022-12-04T13:29:41.572Z,7.00
2022-12-04T13:32:46.899Z,6.90
2022-12-04T13:35:34.936Z,6.90
2022-12-04T13:38:33.235Z,6.80
2022-12-04T13:41:07.915Z,6.80
2022-12-04T13:46:37.790Z,6.70
2022-12-04T13:49:14.322Z,6.70
2022-12-04T13:51:43.945Z,6.60
2022-12-04T13:54:11.509Z,6.60
2022-12-04T13:56:41.955Z,6.50
2022-12-04T13:59:28.184Z,6.50
2022-12-04T14:02:06.441Z,6.50
2022-12-04T14:04:44.295Z,6.50
2022-12-04T14:07:56.850Z,6.50
2022-12-04T14:10:31.674Z,6.50
2022-12-04T14:13:17.735Z,6.50
2022-12-04T14:15:46.623Z,6.50
2022-12-04T14:18:14.755Z,6.50
2022-12-04T14:20:44.794Z,6.50
2022-12-04T14:23:23.181Z,6.50
2022-12-04T14:25:55.691Z,6.50
2022-12-04T14:28:25.995Z,6.50
2022-12-04T14:31:05.709Z,6.40
2022-12-04T14:33:39.025Z,6.50
2022-12-04T14:36:11.499Z,6.50
2022-12-04T14:38:40.434Z,6.50
2022-12-04T14:41:09.846Z,6.50
2022-12-04T14:43:48.802Z,6.60
2022-12-04T14:46:48.701Z,6.50
2022-12-04T14:50:03.551Z,6.50
2022-12-04T14:52:53.545Z,6.50
2022-12-04T14:55:52.297Z,6.50
2022-12-04T14:58:31.702Z,6.50
2022-12-04T15:01:06.275Z,6.40
2022-12-04T15:03:45.432Z,6.40
2022-12-04T15:06:34.386Z,6.50
2022-12-04T15:09:36.026Z,6.40
2022-12-04T15:12:35.600Z,6.40
2022-12-04T15:15:30.681Z,6.40
2022-12-04T15:18:13.293Z,6.30
2022-12-04T15:20:52.071Z,6.20
2022-12-04T15:23:41.009Z,6.10
2022-12-04T15:26:21.500Z,6.10
2022-12-04T15:28:56.460Z,6.10
2022-12-04T15:31:36.696Z,6.10
2022-12-04T15:34:09.430Z,6.00
2022-12-04T15:36:43.205Z,6.10
2022-12-04T15:39:24.277Z,6.10
2022-12-04T15:41:52.623Z,6.10
2022-12-04T15:44:34.626Z,6.10
2022-12-04T15:47:17.878Z,6.10
2022-12-04T15:52:18.258Z,6.10
2022-12-04T15:54:56.832Z,6.10
2022-12-04T15:57:32.697Z,6.10
2022-12-04T16:00:05.481Z,6.10
2022-12-04T16:02:37.061Z,6.10
2022-12-04T16:05:25.047Z,6.00
2022-12-04T16:08:02.989Z,6.00
2022-12-04T16:10:33.697Z,6.00
2022-12-04T16:13:04.460Z,5.90
2022-12-04T16:15:43.967Z,5.90
2022-12-04T16:18:14.104Z,5.90
2022-12-04T16:23:14.776Z,5.90
2022-12-04T16:25:42.782Z,5.80
2022-12-04T16:30:38.587Z,5.70
2022-12-04T16:33:06.148Z,5.60
2022-12-04T16:35:34.584Z,5.60
2022-12-04T16:40:30.327Z,5.60
2022-12-04T16:45:31.478Z,5.60
2022-12-04T16:47:59.244Z,5.50
2022-12-04T16:50:27.832Z,5.50
2022-12-04T16:52:56.011Z,5.50
2022-12-04T16:55:36.971Z,5.60
2022-12-04T17:03:05.669Z,5.60
2022-12-04T17:05:36.087Z,5.70
2022-12-04T17:10:34.125Z,5.70
2022-12-04T17:13:03.236Z,5.70
2022-12-04T17:17:59.078Z,5.70
2022-12-04T17:27:54.335Z,5.90
2022-12-04T17:33:05.439Z,5.90
2022-12-04T17:35:34.471Z,5.90
2022-12-04T17:38:32.000Z,5.90
2022-12-04T17:41:05.287Z,5.90
2022-12-04T17:43:33.608Z,5.90
2022-12-04T17:46:03.288Z,5.90
2022-12-04T17:48:33.085Z,5.90
2022-12-04T17:51:10.069Z,5.80
2022-12-04T17:56:07.350Z,5.90
2022-12-04T17:58:35.842Z,5.90
2022-12-04T18:01:14.998Z,5.80
2022-12-04T18:03:44.033Z,5.80
2022-12-04T18:06:31.256Z,5.80
2022-12-04T18:09:00.097Z,5.80
2022-12-04T18:14:26.294Z,5.60
2022-12-04T18:16:55.967Z,5.60
2022-12-04T18:19:28.571Z,5.60
2022-12-04T18:24:29.230Z,5.60
2022-12-04T18:26:58.887Z,5.60
2022-12-04T18:29:27.770Z,5.60
2022-12-04T18:39:27.084Z,5.70
2022-12-04T18:42:01.250Z,5.70
2022-12-04T18:51:55.169Z,5.60
2022-12-04T18:54:24.029Z,5.60
2022-12-04T18:59:24.188Z,5.50
2022-12-04T19:01:55.244Z,5.50
2022-12-04T19:04:25.025Z,5.50
2022-12-04T19:06:56.607Z,5.50
2022-12-04T19:10:02.058Z,5.40
2022-12-04T19:14:44.522Z,5.30
2022-12-04T19:19:41.366Z,5.10
2022-12-04T19:22:11.207Z,5.10
2022-12-04T19:32:22.322Z,4.90
2022-12-04T19:42:05.894Z,4.70
2022-12-04T19:44:48.414Z,4.70
2022-12-04T19:56:25.618Z,4.70
2022-12-04T20:01:54.064Z,4.50
2022-12-04T20:04:22.580Z,4.40
2022-12-04T20:06:50.493Z,4.30
2022-12-04T20:09:22.223Z,4.20
2022-12-04T20:19:24.705Z,3.90
2022-12-04T20:24:27.939Z,4.00
2022-12-04T20:27:00.559Z,4.00
2022-12-04T20:29:28.317Z,4.00
2022-12-04T20:36:54.580Z,3.80
2022-12-04T20:39:24.460Z,3.90
2022-12-04T20:49:22.293Z,4.30
2022-12-04T20:51:52.362Z,4.20
2022-12-04T20:54:21.968Z,4.40
2022-12-04T20:56:53.510Z,4.50
2022-12-04T20:59:24.008Z,4.50
2022-12-04T21:04:20.914Z,4.60
2022-12-04T21:09:30.562Z,7.80
2022-12-04T21:14:50.165Z,4.80
2022-12-04T21:17:19.791Z,4.90
2022-12-04T21:19:50.319Z,4.90
2022-12-04T21:22:20.328Z,4.80
2022-12-04T21:27:21.449Z,5.10
2022-12-04T21:29:50.223Z,5.10
2022-12-04T21:32:20.476Z,5.10
2022-12-04T21:37:19.516Z,5.20
2022-12-04T21:40:04.424Z,5.30
2022-12-04T21:42:34.851Z,5.30
2022-12-04T21:45:31.441Z,5.30
2022-12-04T21:50:27.882Z,5.30
2022-12-04T21:56:31.978Z,5.30
2022-12-04T22:06:37.413Z,5.30
2022-12-04T22:09:12.756Z,5.30
2022-12-04T22:11:43.036Z,5.40
2022-12-04T22:19:12.783Z,5.40
2022-12-04T22:24:16.149Z,5.40
2022-12-04T22:29:48.709Z,5.40
2022-12-04T22:32:08.293Z,5.40
2022-12-04T22:37:15.608Z,5.40
2022-12-04T22:42:15.215Z,5.50
2022-12-04T22:57:09.232Z,5.50
2022-12-04T23:07:01.239Z,5.50
2022-12-04T23:09:31.720Z,5.50
2022-12-04T23:17:46.641Z,5.50
2022-12-04T23:20:18.537Z,5.50
2022-12-04T23:22:48.310Z,5.60
2022-12-04T23:32:40.588Z,5.60
2022-12-04T23:37:37.111Z,5.60
2022-12-04T23:40:08.008Z,5.60
2022-12-04T23:42:36.753Z,5.60
2022-12-04T23:45:07.963Z,5.60
2022-12-04T23:47:36.443Z,5.60
2022-12-04T23:57:32.579Z,5.50
